Sedgwick Reserve, California Weather observations

Data are for 10 minute period ending at time listed.
 Day   Time   Solar   Ave.   Ave.  Ave.  Vector  Max.   Baro.   Total    
  of    of     Rad.   Air    Rel.  Wind   Wind   Wind  Press.  Precip.   
Year   Day            Temp.  Hum.  Speed  Dir.   Gust                    
2015   (PST)  Kw/m2    F      %     mph   deg.    mph    mb.     in.     
-------------------------------------------------------------------------
 143    5:00   0.00   52.8    83    4.1   289     6.0   975.6    0.00 
 143    5:10   0.00   52.8    83    4.3   281     6.9   975.7    0.00 
 143    5:20   0.01   52.6    83    4.3   277     6.8   975.8    0.00 
 143    5:30   0.01   52.8    82    4.4   303     6.9   975.9    0.00 
 143    5:40   0.02   52.8    82    5.0   299     7.3   976.0    0.00 
 143    5:50   0.03   52.9    82    3.4   285     6.1   976.0    0.00 
 143    6:00   0.04   53.1    81    3.8   297     5.7   976.0    0.00 
 143    6:10   0.05   53.2    81    2.3   299     3.9   976.0    0.00 
 143    6:20   0.06   53.3    81    3.2   271     5.8   975.9    0.00 
 143    6:30   0.07   53.3    81    4.3   273     6.3   976.0    0.00 
 143    6:40   0.08   53.3    81    4.1   261     6.5   976.2    0.00 
 143    6:50   0.08   53.4    80    3.8   268     6.3   976.3    0.00 
 143    7:00   0.08   53.4    81    2.9   261     5.4   976.3    0.00 
 143    7:10   0.08   53.7    80    4.0   270     6.1   976.3    0.00 
 143    7:20   0.10   53.5    80    3.5   263     6.3   976.5    0.00 
 143    7:30   0.12   54.3    78    0.7   121     2.8   976.6    0.00 
 143    7:40   0.15   55.6    75    0.6    50     1.9   976.6    0.00 
 143    7:50   0.20   56.2    73    2.2    52     5.1   976.5    0.00 
 143    8:00   0.24   55.7    74    3.0   269     5.9   976.5    0.00 
 143    8:10   0.27   55.2    75    2.4   261     6.4   976.5    0.00 
 143    8:20   0.61   56.9    72    2.7   329     7.3   976.5    0.00 
 143    8:30   0.38   58.9    67    2.9     9     7.0   976.5    0.00 
 143    8:40   0.60   58.8    67    3.4   322     8.8   976.7    0.00 
 143    8:50   0.80   60.9    63    4.3   355     8.7   976.8    0.00 
 143    9:00   0.39   58.7    70    8.8   251    14.5   976.9    0.00 
 143    9:10   0.44   58.0    71    7.1   248    11.5   976.8    0.00 
 143    9:20   0.66   59.1    69    7.4   249    13.5   976.7    0.00 
 143    9:30   0.50   59.7    67    7.7   272    12.1   976.7    0.00 
 143    9:40   0.80   59.8    67    8.5   283    13.7   976.7    0.00 
 143    9:50   0.76   60.5    66    7.8   274    13.8   976.6    0.00 
 143   10:00   0.86   61.1    65    7.4   251    16.9   976.5    0.00 
 143   10:10   0.87   61.1    64    9.8   252    15.9   976.5    0.00 
 143   10:20   0.89   61.2    64   10.3   263    16.5   976.6    0.00 
 143   10:30   0.88   61.3    64   10.7   268    16.8   976.5    0.00 
 143   10:40   0.89   61.0    65   13.3   247    18.0   976.4    0.00 
 143   10:50   0.90   61.5    64   11.2   256    17.9   976.3    0.00 
 143   11:00   0.91   62.0    63   12.4   250    17.8   976.2    0.00 
 143   11:10   0.91   62.9    61   11.2   264    17.7   976.2    0.00 
 143   11:20   0.90   63.6    59   10.7   274    18.4   976.2    0.00 
 143   11:30   0.93   63.9    58   10.0   261    16.8   976.2    0.00 
 143   11:40   0.93   65.0    56   10.7   264    18.9   976.0    0.00 
 143   11:50   0.93   64.4    58   11.5   242    19.1   975.9    0.00 
 143   12:00   0.94   64.7    57   12.2   246    20.2   975.9    0.00 
 143   12:10   0.93   64.8    57   12.5   246    20.8   975.8    0.00 
 143   12:20   0.93   65.8    55   10.3   252    21.1   975.7    0.00 
 143   12:30   0.93   65.9    55   12.2   261    18.6   975.6    0.00 
 143   12:40   0.92   66.8    53   11.9   262    18.7   975.6    0.00 
 143   12:50   0.92   66.4    54   12.1   266    19.5   975.6    0.00 
 143   13:00   0.91   67.7    52   12.5   271    21.7   975.6    0.00 
 143   13:10   0.90   67.1    52   12.2   268    20.4   975.5    0.00 
 143   13:20   0.89   67.0    52   14.2   254    21.5   975.3    0.00 
 143   13:30   0.88   67.8    51   12.9   261    19.1   975.1    0.00 
 143   13:40   0.86   69.1    48   10.8   288    18.2   975.0    0.00 
 143   13:50   0.85   68.9    48   11.7   284    18.3   974.8    0.00 
 143   14:00   0.84   69.1    48   11.8   286    18.5   974.7    0.00 
 143   14:10   0.82   68.3    49   13.8   286    21.3   974.6    0.00 
 143   14:20   0.80   68.2    49   13.4   282    21.9   974.6    0.00 
 143   14:30   0.78   67.0    51   15.4   282    23.3   974.7    0.00 
 143   14:40   0.76   66.9    51   13.9   289    20.9   974.7    0.00 
 143   14:50   0.73   65.8    52   16.0   275    27.2   974.7    0.00 
 143   15:00   0.70   65.8    52   14.4   284    25.6   974.6    0.00 
 143   15:10   0.68   65.4    54   15.0   277    22.7   974.4    0.00 
 143   15:20   0.65   66.6    52   10.7   294    20.7   974.3    0.00 
 143   15:30   0.63   65.2    54   13.5   281    20.2   974.3    0.00 
 143   15:40   0.59   64.1    56   15.5   274    24.4   974.3    0.00 
 143   15:50   0.56   64.3    55   13.8   279    22.2   974.4    0.00 
 143   16:00   0.54   63.9    56   12.9   290    21.5   974.4    0.00 
 143   16:10   0.51   64.0    55   11.7   301    20.1   974.4    0.00 
 143   16:20   0.47   63.9    55   11.3   289    18.3   974.3    0.00 
 143   16:30   0.44   63.3    56    9.4   288    20.5   974.3    0.00 
 143   16:40   0.41   62.5    57   10.6   277    18.9   974.3    0.00 
 143   16:50   0.38   62.1    58   11.4   285    22.1   974.2    0.00 
 143   17:00   0.34   60.9    60   12.8   284    21.3   974.2    0.00 
 143   17:10   0.30   60.0    63   12.7   278    22.3   974.1    0.00 
 143   17:20   0.27   59.8    63   11.1   283    23.8   974.1    0.00 
 143   17:30   0.24   59.4    64   13.1   278    20.8   974.2    0.00 
 143   17:40   0.21   58.5    65   11.0   282    20.5   974.2    0.00 
 143   17:50   0.18   58.2    66   11.8   294    23.3   974.3    0.00 
 143   18:00   0.15   57.8    67   10.1   288    18.1   974.3    0.00 
 143   18:10   0.08   57.2    69    8.0   292    14.4   974.4    0.00 
 143   18:20   0.04   55.9    72    7.6   282    15.2   974.4    0.00 
 143   18:30   0.03   55.2    74    8.1   283    16.6   974.3    0.00 
 143   18:40   0.02   54.7    76    8.0   282    15.6   974.3    0.00 
 143   18:50   0.01   54.3    77    9.0   283    14.2   974.3    0.00 
 143   19:00   0.01   54.0    77    7.5   287    12.6   974.3    0.00 
 143   19:10   0.00   53.8    78    6.4   284    11.9   974.3    0.00 
 143   19:20   0.00   53.4    79    7.8   294    14.0   974.4    0.00 
 143   19:30   0.00   53.1    80    9.5   298    18.3   974.5    0.00 
 143   19:40   0.00   52.9    80   10.7   290    19.8   974.6    0.00 
 143   19:50   0.00   52.6    80   11.1   284    20.7   974.7    0.00 
 143   20:00   0.00   52.4    81    9.4   295    15.7   974.8    0.00 
 143   20:10   0.00   52.2    82   10.3   293    17.0   974.8    0.00 
 143   20:20   0.00   52.0    83    9.7   281    16.1   974.9    0.00 
 143   20:30   0.00   51.9    84    8.9   282    14.6   975.0    0.00 
 143   20:40   0.00   52.1    83    6.6   283    11.2   975.1    0.00 
 143   20:50   0.00   52.3    83    7.1   289    12.8   975.2    0.00 
 143   21:00   0.00   52.3    83    5.9   289     9.6   975.2    0.00 
 143   21:10   0.00   52.3    83    5.3   298    10.2   975.2    0.00 
 143   21:20   0.00   52.3    84    3.5   301     6.7   975.1    0.00 
 143   21:30   0.00   52.4    84    4.9   292     7.8   975.1    0.00 
 143   21:40   0.00   52.4    84    5.8   291     9.1   975.1    0.00 
 143   21:50   0.00   52.4    84    6.6   285    10.9   975.1    0.00 
 143   22:00   0.00   52.4    84    7.0   295    11.8   975.2    0.00 
 143   22:10   0.00   52.4    84    3.9   286     8.6   975.1    0.00 
 143   22:20   0.00   52.6    83    3.9   284     6.6   975.0    0.00 
 143   22:30   0.00   52.5    83    6.3   281     9.1   974.9    0.00 
 143   22:40   0.00   52.4    83    5.5   274     8.6   974.8    0.00 
 143   22:50   0.00   52.3    83    5.4   282     9.6   974.8    0.00 
 143   23:00   0.00   52.3    83    5.1   289     8.8   974.7    0.00 
 143   23:10   0.00   52.3    82    4.2   276     7.5   974.6    0.00 
 143   23:20   0.00   52.3    82    4.9   274     7.7   974.5    0.00 
 143   23:30   0.00   52.3    82    4.3   282     8.2   974.4    0.00 
 143   23:40   0.00   52.2    82    3.6   269     5.8   974.3    0.00 
 143   23:50   0.00   52.2    82    4.1   275     6.4   974.2    0.00 
 144    0:00   0.00   52.2    82    4.7   270     6.2   974.2    0.00 
 144    0:10   0.00   52.2    82    4.5   285     6.4   974.4    0.00 
 144    0:20   0.00   52.4    81    2.8   291     6.1   974.3    0.00 
 144    0:30   0.00   52.6    80    2.3   288     4.5   974.2    0.00 
 144    0:40   0.00   52.4    81    2.2   278     3.3   974.0    0.00 
 144    0:50   0.00   52.4    81    3.3   282     4.6   974.1    0.00 
 144    1:00   0.00   52.4    81    4.5   277     6.9   974.3    0.00 
 144    1:10   0.00   52.4    81    3.9   285     6.1   974.1    0.00 
 144    1:20   0.00   52.4    81    2.9   301     5.2   974.1    0.00 
 144    1:30   0.00   52.4    81    2.7   282     3.9   974.0    0.00 
 144    1:40   0.00   52.4    81    1.5   274     3.1   974.0    0.00 
 144    1:50   0.00   52.4    81    0.8   255     1.8   973.9    0.00 
 144    2:00   0.00   52.4    81    2.8   239     4.0   973.8    0.00 
 144    2:10   0.00   52.3    81    3.0   272     4.1   973.9    0.00 
 144    2:20   0.00   52.3    81    0.6   281     2.0   973.8    0.00 
 144    2:30   0.00   52.4    80    1.6   281     4.7   973.7    0.00 
 144    2:40   0.00   52.4    80    1.0   220     2.7   973.6    0.00 
 144    2:50   0.00   52.3    81    2.6   200     3.7   973.5    0.00 
 144    3:00   0.00   52.3    81    2.4   163     4.9   973.5    0.00 
 144    3:10   0.00   52.4    80    1.8   143     3.7   973.5    0.00 
 144    3:20   0.00   52.4    80    2.2   138     3.8   973.5    0.00 
 144    3:30   0.00   52.3    80    2.1   117     4.7   973.5    0.00 
 144    3:40   0.00   52.0    81    1.9    82     3.7   973.4    0.00 
 144    3:50   0.00   51.9    81    2.9   213     4.2   973.5    0.00 
 144    4:00   0.00   52.0    81    0.8   233     3.4   973.6    0.00 
 144    4:10   0.00   52.1    81    1.4   220     3.5   973.6    0.00 
 144    4:20   0.00   52.0    81    1.8   240     3.2   973.6    0.00 
 144    4:30   0.00   51.9    82    2.3   232     4.2   973.7    0.00 
 144    4:40   0.00   51.7    82    1.4   231     2.4   973.7    0.00 
 144    4:50   0.00   51.8    82    1.0   181     2.0   973.8    0.00 

Return to Sedgwick Reserve graphs page.


Western Regional Climate Center,wrcc@dri.edu